Terminal Aerodrome Forecast
Issued by NWS

Home | Current Version | Previous Version | Text Only | Print | Product List | Glossary On
Versions: 1 2 3 4 5 6 7 8 9 10 11 12 13 14 15 16 17 18
000
FTAK31 PAJN 240529
TAFAKT
TAF
PAKT 240529Z 2406/2506 16006KT 5SM -SHRA BR OVC040 WS020/20045KT
     FM240900 15004KT 4SM BR VCSH OVC025
     FM241500 13008KT 3SM -RA BR SCT007 OVC025
     FM242000 14009KT 2SM -RA BR OVC007
     FM250000 15009G19KT 4SM -RA BR SCT007 OVC015
     FM250300 24007KT 5SM -RA BR OVC015 WS020/20035KT
      AMD LTD TO CLD VIS AND WIND 2406/2415=

USA.gov is the U.S. government's official web portal to all federal, state and local government web resources and services.